Time;durP1;ratioP1;P1;durP2;ratioP2;P2;SDS_P1;SDS_P2;PMS_P1;PMS_P2;Temp;Humidity;BMP_temperature;BMP_pressure;BME280_temperature;BME280_humidity;BME280_pressure;Samples;Min_cycle;Max_cycle;Signal;HPM_P1;HPM_P2
2023/05/20 00:01:55;;;;;;;18.87;7.97;;;;;;;20.05;39.40;100401.29;1762894;81;21155;-81
2023/05/20 00:05:02;;;;;;;17.23;7.97;;;;;;;20.04;39.46;100407.93;1737350;82;21220;-77
2023/05/20 00:08:09;;;;;;;21.37;8.20;;;;;;;19.95;39.43;100401.02;1738279;82;21161;-83
2023/05/20 00:11:14;;;;;;;21.30;8.75;;;;;;;19.98;39.38;100398.30;1737462;82;21208;-77
2023/05/20 00:14:20;;;;;;;16.80;8.03;;;;;;;19.96;39.40;100401.86;1736987;82;21216;-82
2023/05/20 00:17:27;;;;;;;16.95;8.15;;;;;;;20.05;39.26;100391.57;1738530;82;21220;-78
2023/05/20 00:20:33;;;;;;;16.32;7.97;;;;;;;19.99;39.43;100392.50;1738683;82;21217;-81
2023/05/20 00:23:39;;;;;;;16.10;8.05;;;;;;;19.96;39.38;100397.16;1738246;82;21224;-78
2023/05/20 00:26:45;;;;;;;16.97;7.85;;;;;;;19.96;39.33;100405.48;1737022;82;21212;-78
2023/05/20 00:29:50;;;;;;;25.65;8.03;;;;;;;19.95;39.23;100403.79;1737404;82;21753;-82
2023/05/20 00:32:56;;;;;;;21.00;8.15;;;;;;;19.97;39.14;100399.37;1737251;82;21180;-77
2023/05/20 00:36:02;;;;;;;24.32;8.95;;;;;;;20.02;39.06;100401.75;1738498;82;21199;-82
2023/05/20 00:39:08;;;;;;;11.78;7.17;;;;;;;20.08;38.99;100404.12;1737841;82;21244;-77
2023/05/20 00:42:15;;;;;;;14.78;8.15;;;;;;;20.05;39.05;100399.90;1737139;82;21197;-81
2023/05/20 00:45:20;;;;;;;18.85;7.50;;;;;;;20.05;39.07;100397.67;1737044;82;21221;-83
2023/05/20 00:48:27;;;;;;;18.52;8.18;;;;;;;20.12;38.96;100396.47;1738227;82;21220;-81
2023/05/20 00:51:32;;;;;;;18.45;7.25;;;;;;;20.09;39.08;100396.08;1738377;82;21153;-78
2023/05/20 00:54:37;;;;;;;25.20;7.67;;;;;;;20.08;39.17;100398.02;1714991;82;21220;-82
2023/05/20 00:57:44;;;;;;;22.93;8.00;;;;;;;20.07;39.16;100396.33;1738316;82;21177;-77
2023/05/20 01:00:50;;;;;;;20.85;8.00;;;;;;;20.02;39.18;100396.20;1738301;82;21181;-78
2023/05/20 01:03:55;;;;;;;24.10;8.00;;;;;;;20.03;39.21;100395.11;1742152;80;21200;-82
2023/05/20 01:07:01;;;;;;;17.62;7.40;;;;;;;19.98;39.30;100388.03;1762937;81;21764;-81
2023/05/20 01:10:08;;;;;;;16.10;6.80;;;;;;;20.01;39.23;100383.41;1762869;81;21190;-81
2023/05/20 01:13:20;;;;;;;14.70;6.70;;;;;;;19.98;39.39;100388.03;1762757;81;21223;-77
2023/05/20 01:16:19;;;;;;;13.72;7.20;;;;;;;19.98;39.42;100388.58;1762141;81;21719;-78
2023/05/20 01:19:48;;;;;;;16.42;7.75;;;;;;;19.93;39.45;100389.28;1762253;81;21197;-77
2023/05/20 01:23:02;;;;;;;15.35;7.40;;;;;;;19.90;39.53;100385.58;1762795;81;21166;-78
2023/05/20 01:26:06;;;;;;;21.68;7.30;;;;;;;19.88;39.51;100383.59;1762871;81;21171;-81
2023/05/20 01:29:12;;;;;;;19.60;7.67;;;;;;;19.94;39.50;100390.13;1762920;81;21202;-77
2023/05/20 01:32:22;;;;;;;10.58;7.08;;;;;;;19.87;39.56;100383.30;1762924;81;21163;-82
2023/05/20 01:35:30;;;;;;;17.70;7.08;;;;;;;19.79;39.68;100383.08;1762914;81;21246;-78
2023/05/20 01:38:36;;;;;;;13.22;7.08;;;;;;;19.83;39.57;100380.69;1762873;81;21206;-82
2023/05/20 01:41:41;;;;;;;19.62;6.72;;;;;;;19.80;39.58;100381.98;1762917;81;21194;-78
2023/05/20 01:44:40;;;;;;;13.80;6.97;;;;;;;19.79;39.57;100374.75;1762897;81;21194;-82
2023/05/20 01:47:32;;;;;;;16.42;7.83;;;;;;;19.79;39.57;100375.30;1761828;81;21233;-82
2023/05/20 01:50:40;;;;;;;18.92;7.55;;;;;;;19.80;39.59;100371.43;1762809;81;21191;-77
2023/05/20 01:53:46;;;;;;;22.87;7.33;;;;;;;19.78;39.64;100377.22;1762438;81;21838;-81
2023/05/20 01:56:54;;;;;;;16.00;7.35;;;;;;;19.71;39.95;100374.22;1762233;81;21269;-78
2023/05/20 02:00:06;;;;;;;16.97;7.03;;;;;;;19.82;39.85;100381.77;1761732;81;21194;-82
2023/05/20 02:03:13;;;;;;;19.23;7.65;;;;;;;19.88;39.74;100392.77;1762870;81;21703;-83
2023/05/20 02:06:19;;;;;;;21.15;7.12;;;;;;;19.90;39.66;100386.97;1765816;80;21692;-77
2023/05/20 02:09:26;;;;;;;28.57;7.87;;;;;;;19.97;39.51;100382.73;1768133;81;21747;-82
2023/05/20 02:12:31;;;;;;;12.53;6.97;;;;;;;20.02;39.38;100385.09;1768468;81;21202;-78
2023/05/20 02:15:36;;;;;;;16.75;7.33;;;;;;;20.04;39.38;100387.11;1769061;81;21154;-82
2023/05/20 02:18:43;;;;;;;13.25;7.15;;;;;;;20.08;39.32;100391.08;1768805;81;21210;-82
2023/05/20 02:21:49;;;;;;;19.75;7.03;;;;;;;20.15;39.19;100389.61;1768851;81;21190;-82
2023/05/20 02:24:54;;;;;;;14.83;7.58;;;;;;;20.33;38.93;100392.31;1767734;81;21194;-82
2023/05/20 02:28:04;;;;;;;17.87;7.47;;;;;;;20.62;38.52;100394.73;1767691;81;21735;-78
2023/05/20 02:31:08;;;;;;;16.37;8.08;;;;;;;20.82;38.24;100396.31;1768915;81;21179;-83
2023/05/20 02:34:13;;;;;;;12.43;6.40;;;;;;;21.04;38.00;100397.94;1768274;81;21637;-81
2023/05/20 02:37:21;;;;;;;15.03;6.90;;;;;;;21.30;37.68;100412.70;1768342;81;21735;-83
2023/05/20 02:40:26;;;;;;;14.38;6.20;;;;;;;21.49;37.46;100412.03;1768797;81;21186;-78
2023/05/20 02:43:33;;;;;;;15.63;7.28;;;;;;;21.74;36.88;100416.43;1767976;81;21187;-82
2023/05/20 02:46:39;;;;;;;15.05;7.08;;;;;;;22.01;36.73;100409.73;1768811;81;21755;-81
2023/05/20 02:49:40;;;;;;;17.48;7.37;;;;;;;22.14;36.52;100415.88;1768117;81;21778;-82
2023/05/20 02:52:46;;;;;;;17.60;7.33;;;;;;;22.42;36.00;100419.17;1768925;81;21176;-77
2023/05/20 02:55:53;;;;;;;17.00;6.55;;;;;;;22.62;35.45;100420.61;1768874;81;21147;-78
2023/05/20 02:58:59;;;;;;;16.62;7.42;;;;;;;22.85;35.15;100409.84;1767502;81;21186;-83
2023/05/20 03:02:06;;;;;;;12.30;6.78;;;;;;;23.06;34.92;100414.67;1768794;81;21139;-81
2023/05/20 03:05:12;;;;;;;22.75;7.12;;;;;;;23.18;34.69;100409.81;1767571;81;21213;-83
2023/05/20 03:08:19;;;;;;;11.83;6.58;;;;;;;23.37;34.47;100413.70;1761798;81;21226;-77
2023/05/20 03:11:23;;;;;;;14.78;6.60;;;;;;;23.53;34.42;100414.21;1763057;81;21175;-79
2023/05/20 03:14:28;;;;;;;20.23;6.83;;;;;;;23.80;34.14;100431.59;1762895;81;21744;-78
2023/05/20 03:17:34;;;;;;;14.78;6.17;;;;;;;23.80;33.66;100419.86;1762507;81;21195;-77
2023/05/20 03:20:40;;;;;;;15.32;6.55;;;;;;;23.89;33.70;100423.87;1762807;81;21210;-77
2023/05/20 03:23:46;;;;;;;23.47;7.50;;;;;;;23.94;33.68;100432.88;1761448;81;21770;-78
2023/05/20 03:26:52;;;;;;;17.32;7.25;;;;;;;24.04;33.86;100427.39;1762870;81;21691;-78
2023/05/20 03:29:58;;;;;;;14.20;6.90;;;;;;;24.14;33.75;100419.70;1761612;81;21190;-81
2023/05/20 03:33:04;;;;;;;11.57;6.65;;;;;;;24.30;33.85;100424.88;1762789;81;21154;-77
2023/05/20 03:36:10;;;;;;;17.42;7.47;;;;;;;24.55;33.82;100415.36;1763149;81;21187;-83
2023/05/20 03:39:15;;;;;;;12.28;6.45;;;;;;;24.70;33.76;100415.52;1762431;81;21198;-83
2023/05/20 03:42:21;;;;;;;15.20;6.40;;;;;;;24.84;33.92;100416.42;1763124;81;21136;-79
2023/05/20 03:45:26;;;;;;;21.73;7.15;;;;;;;24.99;33.68;100417.41;1762963;81;21194;-83
2023/05/20 03:48:33;;;;;;;25.02;7.67;;;;;;;25.02;33.68;100431.39;1762337;81;21238;-83
2023/05/20 03:51:39;;;;;;;13.13;7.33;;;;;;;25.11;33.75;100424.77;1762935;81;21222;-79
2023/05/20 03:54:46;;;;;;;14.70;7.53;;;;;;;25.13;33.89;100443.00;1761983;81;21194;-79
2023/05/20 03:57:52;;;;;;;15.30;7.20;;;;;;;25.12;33.72;100430.65;1763005;81;21176;-82
2023/05/20 04:00:51;;;;;;;17.35;6.78;;;;;;;25.06;33.45;100429.75;1763003;81;21731;-81
2023/05/20 04:03:56;;;;;;;15.05;6.97;;;;;;;25.02;33.22;100433.35;1763116;81;21458;-78
2023/05/20 04:07:03;;;;;;;13.88;7.25;;;;;;;24.98;33.29;100429.72;1763166;81;21151;-82
2023/05/20 04:10:10;;;;;;;18.90;7.17;;;;;;;24.85;33.45;100432.12;1769634;81;21787;-83
2023/05/20 04:13:17;;;;;;;20.88;6.95;;;;;;;25.07;33.68;100437.05;1768215;81;21528;-78
2023/05/20 04:16:22;;;;;;;14.10;7.33;;;;;;;25.07;33.18;100441.25;1768214;81;21237;-82
2023/05/20 04:19:28;;;;;;;23.00;7.37;;;;;;;25.18;33.35;100450.02;1768764;81;21179;-78
2023/05/20 04:22:34;;;;;;;21.73;7.72;;;;;;;25.26;33.03;100436.06;1769572;81;21167;-78
2023/05/20 04:25:44;;;;;;;24.37;7.65;;;;;;;25.41;33.08;100441.77;1769603;81;21170;-82
2023/05/20 04:28:40;;;;;;;22.13;7.65;;;;;;;25.50;33.10;100451.88;1769171;81;21179;-83
2023/05/20 04:31:46;;;;;;;14.35;7.00;;;;;;;25.62;32.88;100451.67;1769842;81;21218;-81
2023/05/20 04:34:54;;;;;;;21.42;7.87;;;;;;;25.80;32.99;100447.59;1768642;81;21183;-83
2023/05/20 04:38:00;;;;;;;21.20;7.60;;;;;;;26.02;33.26;100450.16;1769791;81;21167;-81
2023/05/20 04:41:06;;;;;;;27.40;8.00;;;;;;;26.12;33.20;100448.83;1768283;81;21713;-78
2023/05/20 04:44:12;;;;;;;22.48;7.28;;;;;;;26.30;33.26;100447.44;1769016;81;21788;-79
2023/05/20 04:47:17;;;;;;;15.90;7.15;;;;;;;26.44;33.07;100448.61;1769674;81;21171;-81
2023/05/20 04:50:23;;;;;;;18.67;7.37;;;;;;;26.49;33.03;100444.45;1768278;81;21231;-77
2023/05/20 04:53:32;;;;;;;16.95;7.72;;;;;;;26.56;32.57;100443.59;1769481;81;21766;-84
2023/05/20 04:56:39;;;;;;;17.82;7.30;;;;;;;26.61;32.55;100452.01;1769518;81;21840;-79
2023/05/20 04:59:44;;;;;;;14.25;7.37;;;;;;;26.67;32.89;100453.69;1768761;81;21179;-84
2023/05/20 05:02:50;;;;;;;15.88;6.62;;;;;;;26.79;33.30;100458.20;1769773;81;21741;-79
2023/05/20 05:05:55;;;;;;;18.98;6.37;;;;;;;26.98;32.40;100453.70;1769623;81;21175;-84
2023/05/20 05:09:01;;;;;;;15.75;7.45;;;;;;;27.04;32.85;100453.97;1767989;80;21182;-78
2023/05/20 05:12:06;;;;;;;19.40;7.28;;;;;;;27.12;33.27;100450.63;1768956;81;21194;-79
2023/05/20 05:15:13;;;;;;;19.45;8.13;;;;;;;27.00;33.20;100451.44;1769046;81;21151;-79
2023/05/20 05:18:19;;;;;;;15.88;7.20;;;;;;;27.29;32.91;100451.73;1768959;81;21159;-78
2023/05/20 05:21:25;;;;;;;23.22;7.50;;;;;;;27.43;32.97;100448.61;1768744;81;21159;-78
2023/05/20 05:24:31;;;;;;;13.58;6.65;;;;;;;27.48;32.82;100454.78;1768036;81;21245;-83
2023/05/20 05:27:38;;;;;;;17.87;7.58;;;;;;;27.50;32.88;100455.32;1767401;81;21723;-78
2023/05/20 05:30:43;;;;;;;20.37;7.40;;;;;;;27.59;32.79;100456.42;1767423;81;21206;-84
2023/05/20 05:33:50;;;;;;;16.82;7.78;;;;;;;27.64;32.86;100458.38;1767587;81;21237;-83
2023/05/20 05:36:56;;;;;;;23.22;7.20;;;;;;;27.71;33.05;100465.41;1767529;81;21230;-77
2023/05/20 05:40:02;;;;;;;17.70;7.15;;;;;;;27.80;32.34;100464.80;1767438;81;21258;-78
2023/05/20 05:43:10;;;;;;;16.02;7.22;;;;;;;27.98;32.54;100462.75;1769065;81;21642;-79
2023/05/20 05:46:16;;;;;;;20.30;6.65;;;;;;;28.12;32.83;100463.80;1768256;81;21198;-79
2023/05/20 05:49:22;;;;;;;28.55;7.00;;;;;;;28.24;32.19;100462.91;1768193;81;21217;-79
2023/05/20 05:52:28;;;;;;;18.00;7.35;;;;;;;28.45;31.46;100458.58;1768911;81;21163;-79
2023/05/20 05:55:33;;;;;;;18.92;7.90;;;;;;;28.66;32.35;100451.68;1768861;81;21199;-84
2023/05/20 05:58:41;;;;;;;16.00;6.90;;;;;;;28.82;31.94;100452.39;1767760;81;21781;-79
2023/05/20 06:01:47;;;;;;;26.12;7.58;;;;;;;28.93;31.71;100454.53;1769169;81;21194;-84
2023/05/20 06:04:54;;;;;;;14.58;6.45;;;;;;;29.08;31.09;100455.86;1768992;81;21218;-84
2023/05/20 06:08:02;;;;;;;20.88;7.05;;;;;;;29.17;30.62;100452.67;1769152;81;21198;-83
2023/05/20 06:11:08;;;;;;;20.10;6.90;;;;;;;29.32;30.54;100462.11;1763516;80;21814;-80
2023/05/20 06:14:14;;;;;;;31.65;6.97;;;;;;;29.48;30.87;100455.98;1761550;81;21780;-78
2023/05/20 06:17:21;;;;;;;30.15;6.90;;;;;;;29.82;30.27;100452.80;1762441;81;21767;-79
2023/05/20 06:20:20;;;;;;;34.55;7.95;;;;;;;29.84;29.77;100455.61;1761645;81;21735;-79
2023/05/20 06:23:27;;;;;;;19.57;6.47;;;;;;;29.84;29.02;100457.59;1762814;81;21187;-83
2023/05/20 06:26:35;;;;;;;23.15;7.08;;;;;;;30.04;28.97;100455.91;1763057;81;21206;-83
2023/05/20 06:29:41;;;;;;;28.38;6.78;;;;;;;30.13;28.52;100461.72;1762104;81;21202;-82
2023/05/20 06:32:47;;;;;;;17.90;5.97;;;;;;;30.24;28.20;100461.28;1761892;81;21664;-78
2023/05/20 06:35:54;;;;;;;22.60;7.25;;;;;;;30.32;27.33;100464.58;1761509;81;21167;-78
2023/05/20 06:39:02;;;;;;;20.50;4.92;;;;;;;30.35;28.01;100459.17;1761649;81;21803;-82
2023/05/20 06:42:09;;;;;;;21.65;5.72;;;;;;;30.20;26.90;100459.38;1761459;81;21195;-79
2023/05/20 06:45:17;;;;;;;15.10;5.60;;;;;;;30.01;26.04;100461.56;1761638;81;21217;-79
2023/05/20 06:48:25;;;;;;;23.35;6.62;;;;;;;29.92;27.04;100460.55;1759279;81;21214;-78
2023/05/20 06:51:31;;;;;;;23.40;5.67;;;;;;;30.01;27.04;100455.92;1762119;81;21155;-83
2023/05/20 06:54:40;;;;;;;15.88;5.42;;;;;;;30.00;26.95;100451.44;1762118;81;21198;-78
2023/05/20 06:57:49;;;;;;;16.85;6.67;;;;;;;30.13;26.98;100456.94;1762952;81;21215;-78
2023/05/20 07:00:52;;;;;;;12.13;4.47;;;;;;;30.17;26.55;100458.02;1762671;81;21202;-83
2023/05/20 07:03:52;;;;;;;13.98;5.15;;;;;;;30.08;25.95;100464.03;1736124;81;21170;-84
2023/05/20 07:06:58;;;;;;;13.65;5.28;;;;;;;30.14;25.80;100462.84;1763132;81;21179;-77
2023/05/20 07:10:05;;;;;;;12.80;5.42;;;;;;;30.17;25.57;100469.30;1761832;81;21222;-79
2023/05/20 07:13:12;;;;;;;17.95;5.47;;;;;;;30.18;24.47;100466.73;1740009;81;21166;-79
2023/05/20 07:16:18;;;;;;;16.97;4.60;;;;;;;30.23;25.29;100463.84;1768429;81;21127;-83
2023/05/20 07:19:23;;;;;;;21.65;5.12;;;;;;;30.31;24.37;100468.55;1767629;81;21202;-78
2023/05/20 07:22:30;;;;;;;21.33;4.33;;;;;;;30.40;24.66;100476.03;1767337;81;21197;-81
2023/05/20 07:25:37;;;;;;;11.97;4.70;;;;;;;30.45;22.72;100474.54;1766864;81;21167;-79
2023/05/20 07:28:45;;;;;;;8.98;4.35;;;;;;;30.47;20.92;100478.45;1768073;81;21166;-77
2023/05/20 07:31:51;;;;;;;14.47;4.25;;;;;;;30.57;21.61;100478.30;1767927;81;21159;-81
2023/05/20 07:34:57;;;;;;;9.30;4.25;;;;;;;30.67;22.59;100464.02;1767220;81;21203;-77
2023/05/20 07:38:02;;;;;;;14.18;3.58;;;;;;;30.67;20.97;100471.08;1768529;81;21166;-83
2023/05/20 07:41:10;;;;;;;8.53;4.10;;;;;;;30.73;21.11;100475.55;1766838;81;21822;-82
2023/05/20 07:44:22;;;;;;;9.05;4.15;;;;;;;30.71;20.01;100472.17;1767180;81;21206;-84
2023/05/20 07:47:25;;;;;;;10.93;4.03;;;;;;;30.80;21.19;100478.80;1766813;81;21509;-80
2023/05/20 07:50:31;;;;;;;11.18;3.95;;;;;;;30.91;20.07;100475.80;1768499;81;21206;-79
2023/05/20 07:53:37;;;;;;;11.70;4.22;;;;;;;30.88;20.43;100478.69;1768176;81;21198;-79
2023/05/20 07:56:45;;;;;;;13.28;3.80;;;;;;;30.85;20.68;100477.88;1768632;81;21206;-79
2023/05/20 07:59:53;;;;;;;12.80;4.12;;;;;;;30.87;20.99;100472.78;1767227;81;21201;-82
2023/05/20 08:03:01;;;;;;;15.95;4.87;;;;;;;30.99;21.04;100467.47;1767007;81;21229;-78
2023/05/20 08:06:16;;;;;;;8.98;3.87;;;;;;;31.04;20.75;100460.90;1768402;81;21170;-78
2023/05/20 08:09:23;;;;;;;13.03;4.63;;;;;;;31.08;21.16;100460.55;1767802;81;21197;-82
2023/05/20 08:12:29;;;;;;;17.67;4.25;;;;;;;31.35;20.67;100454.73;1767376;79;21182;-83
2023/05/20 08:15:36;;;;;;;9.95;4.15;;;;;;;31.31;19.81;100461.58;1762838;81;21226;-78
2023/05/20 08:18:36;;;;;;;6.70;3.77;;;;;;;31.17;20.79;100460.09;1762912;81;21183;-83
2023/05/20 08:21:44;;;;;;;15.63;3.98;;;;;;;31.11;20.77;100459.94;1763031;81;21767;-78
2023/05/20 08:24:49;;;;;;;7.37;3.77;;;;;;;30.72;19.45;100449.85;1761720;81;21189;-82
2023/05/20 08:27:57;;;;;;;8.73;3.65;;;;;;;30.47;19.94;100450.23;1761425;81;21199;-83
2023/05/20 08:31:04;;;;;;;20.80;3.83;;;;;;;30.45;20.70;100449.72;1761646;81;21234;-83
2023/05/20 08:34:09;;;;;;;11.35;3.50;;;;;;;30.55;20.70;100443.91;1762105;81;21194;-75
2023/05/20 08:37:16;;;;;;;9.03;3.50;;;;;;;30.58;20.39;100442.44;1762930;81;21178;-76
2023/05/20 08:40:22;;;;;;;8.75;4.12;;;;;;;30.68;19.76;100441.72;1761761;81;21215;-80
2023/05/20 08:43:29;;;;;;;8.68;3.35;;;;;;;30.79;19.44;100447.48;1761427;81;21226;-77
2023/05/20 08:46:39;;;;;;;11.60;3.47;;;;;;;30.80;19.68;100446.91;1762703;81;21195;-81
2023/05/20 08:49:46;;;;;;;7.20;3.70;;;;;;;30.73;19.76;100443.08;1761270;81;21216;-79
2023/05/20 08:52:53;;;;;;;5.50;2.85;;;;;;;30.68;19.90;100447.37;1761506;81;21151;-81
2023/05/20 08:56:02;;;;;;;17.98;4.05;;;;;;;30.48;19.46;100456.98;1759177;81;21131;-78
2023/05/20 08:59:08;;;;;;;8.18;3.40;;;;;;;30.39;19.33;100448.09;1761300;81;21222;-79
2023/05/20 09:02:16;;;;;;;11.75;3.50;;;;;;;30.55;18.69;100451.80;1738347;81;21128;-80
2023/05/20 09:05:22;;;;;;;7.20;3.30;;;;;;;30.83;19.10;100444.89;1762524;81;21144;-81
2023/05/20 09:08:32;;;;;;;13.40;3.35;;;;;;;31.15;20.02;100463.83;1762697;81;21183;-78
2023/05/20 09:11:37;;;;;;;8.10;3.15;;;;;;;31.33;18.77;100449.38;1761357;81;21696;-83
2023/05/20 09:14:43;;;;;;;9.50;3.58;;;;;;;31.49;18.97;100449.94;1758434;80;21212;-82
2023/05/20 09:17:50;;;;;;;13.65;3.55;;;;;;;31.54;18.25;100450.66;1762865;81;21267;-78
2023/05/20 09:20:57;;;;;;;7.78;3.08;;;;;;;31.60;18.88;100449.14;1760786;81;21183;-82
2023/05/20 09:24:03;;;;;;;9.10;3.58;;;;;;;31.72;17.42;100443.23;1737956;81;21172;-84
2023/05/20 09:27:04;;;;;;;7.55;3.40;;;;;;;31.85;18.31;100440.73;1763615;81;21636;-78
2023/05/20 09:30:12;;;;;;;9.63;3.37;;;;;;;31.91;18.45;100453.05;1762258;81;21183;-82
2023/05/20 09:33:20;;;;;;;8.00;3.33;;;;;;;31.96;17.61;100446.45;1721219;81;21188;-82
2023/05/20 09:36:26;;;;;;;12.47;4.03;;;;;;;32.03;17.42;100442.59;1733075;83;21190;-78
2023/05/20 09:39:34;;;;;;;8.63;3.50;;;;;;;32.00;16.91;100436.18;1732342;83;21202;-82
2023/05/20 09:42:51;;;;;;;15.63;3.25;;;;;;;32.05;17.79;100429.00;1731648;83;21222;-82
2023/05/20 09:45:59;;;;;;;11.93;3.45;;;;;;;32.10;17.71;100426.05;1733082;83;21151;-83
2023/05/20 09:49:06;;;;;;;9.38;3.45;;;;;;;32.04;16.80;100426.75;1732509;83;21226;-78
2023/05/20 09:52:11;;;;;;;18.15;3.70;;;;;;;31.54;17.90;100417.33;1733274;83;21173;-79
2023/05/20 09:55:19;;;;;;;13.40;3.47;;;;;;;31.53;17.45;100415.08;1731761;83;21254;-82
2023/05/20 09:58:26;;;;;;;13.40;3.80;;;;;;;31.68;17.85;100419.57;1733043;83;21184;-76
2023/05/20 10:01:32;;;;;;;11.68;3.65;;;;;;;31.58;17.16;100425.44;1733138;83;21195;-81
2023/05/20 10:04:41;;;;;;;15.93;4.10;;;;;;;31.43;17.80;100427.14;1732128;83;21218;-81
2023/05/20 10:08:07;;;;;;;9.18;2.92;;;;;;;31.33;17.63;100408.98;1731841;82;21251;-84
2023/05/20 10:11:22;;;;;;;6.08;3.08;;;;;;;31.49;17.74;100393.41;1733151;83;21175;-83
2023/05/20 10:15:08;;;;;;;10.58;4.08;;;;;;;31.75;18.08;100402.17;1726847;81;21190;-83
2023/05/20 10:18:44;;;;;;;5.00;3.17;;;;;;;31.60;17.57;100399.67;1731774;83;21171;-82
2023/05/20 10:21:48;;;;;;;13.65;3.37;;;;;;;31.72;18.85;100393.77;1732998;83;21190;-77
2023/05/20 10:24:55;;;;;;;13.08;3.70;;;;;;;31.81;17.60;100395.27;1733283;83;21183;-83
2023/05/20 10:28:11;;;;;;;12.45;3.00;;;;;;;31.87;17.38;100394.61;1690885;83;21135;-82
2023/05/20 10:31:22;;;;;;;18.60;3.87;;;;;;;31.82;17.28;100384.25;1732937;83;21170;-78
2023/05/20 10:34:29;;;;;;;12.28;3.62;;;;;;;31.77;17.74;100392.23;1733189;83;21195;-78
2023/05/20 10:37:39;;;;;;;11.25;3.12;;;;;;;31.80;17.67;100377.44;1733218;83;22287;-78
2023/05/20 10:40:45;;;;;;;8.55;3.40;;;;;;;31.83;17.89;100387.33;1733113;83;21155;-79
2023/05/20 10:43:50;;;;;;;8.73;3.47;;;;;;;31.78;17.50;100386.83;1732686;83;21190;-83
2023/05/20 10:46:55;;;;;;;14.85;3.92;;;;;;;31.56;17.29;100380.51;1708472;83;21699;-83
2023/05/20 10:50:04;;;;;;;7.92;3.55;;;;;;;31.27;17.81;100380.83;1731498;83;21783;-82
2023/05/20 10:53:12;;;;;;;9.43;3.92;;;;;;;31.26;18.83;100374.89;1732903;83;21194;-83
2023/05/20 10:56:26;;;;;;;6.70;3.17;;;;;;;31.40;17.99;100374.09;1732281;83;21153;-78
2023/05/20 10:59:31;;;;;;;7.50;3.08;;;;;;;31.36;18.48;100368.80;1732157;83;21206;-78
2023/05/20 11:02:37;;;;;;;7.50;3.40;;;;;;;31.29;18.48;100367.24;1732896;83;21198;-79
2023/05/20 11:05:43;;;;;;;10.40;3.22;;;;;;;31.45;18.46;100365.51;1731700;83;21194;-83
2023/05/20 11:08:49;;;;;;;11.65;3.27;;;;;;;31.62;17.68;100361.47;1709213;83;21344;-79
2023/05/20 11:11:59;;;;;;;8.43;3.10;;;;;;;31.48;17.65;100363.48;1732924;83;21207;-78
2023/05/20 11:15:06;;;;;;;8.58;3.62;;;;;;;31.46;17.80;100375.66;1732547;81;21231;-82
2023/05/20 11:18:14;;;;;;;5.92;3.25;;;;;;;31.18;17.82;100363.47;1758967;81;21150;-79
2023/05/20 11:21:19;;;;;;;11.88;2.92;;;;;;;30.95;17.85;100366.73;1746375;82;21799;-84
2023/05/20 11:24:35;;;;;;;10.35;3.27;;;;;;;30.97;18.52;100374.34;1762088;81;21191;-82
2023/05/20 11:27:40;;;;;;;11.90;3.90;;;;;;;30.95;18.04;100368.14;1762782;81;21770;-82
2023/05/20 11:30:49;;;;;;;10.58;3.05;;;;;;;30.91;18.53;100368.50;1788486;79;21147;-78
2023/05/20 11:33:55;;;;;;;12.35;3.10;;;;;;;31.04;17.69;100352.16;1793093;80;21187;-79
2023/05/20 11:37:06;;;;;;;8.73;3.55;;;;;;;31.09;18.10;100350.64;1786987;80;21246;-82
2023/05/20 11:40:14;;;;;;;9.65;3.35;;;;;;;31.25;18.02;100354.86;1786198;79;21186;-78
2023/05/20 11:43:21;;;;;;;8.50;3.58;;;;;;;31.15;18.09;100360.72;1805416;79;21133;-83
2023/05/20 11:46:28;;;;;;;8.58;2.75;;;;;;;31.11;18.80;100356.00;1804780;79;21155;-82
2023/05/20 11:49:33;;;;;;;12.25;3.22;;;;;;;31.00;18.88;100353.34;1773145;80;21167;-79
2023/05/20 11:52:42;;;;;;;7.90;3.00;;;;;;;31.02;18.55;100359.54;1797360;79;21171;-78
2023/05/20 11:55:58;;;;;;;12.58;3.90;;;;;;;31.40;18.76;100354.31;1816730;79;21162;-80
2023/05/20 11:59:06;;;;;;;11.00;3.42;;;;;;;31.12;18.16;100355.68;1816326;79;21175;-82
2023/05/20 12:02:12;;;;;;;6.42;3.22;;;;;;;31.14;19.35;100340.66;1756274;81;21159;-79
2023/05/20 12:05:18;;;;;;;5.72;2.80;;;;;;;31.30;18.12;100341.23;1754955;81;21183;-79
2023/05/20 12:08:23;;;;;;;9.38;3.37;;;;;;;31.34;18.76;100328.73;1798327;79;21723;-83
2023/05/20 12:11:29;;;;;;;19.55;3.62;;;;;;;31.35;19.67;100326.16;1817078;79;21139;-83
2023/05/20 12:14:34;;;;;;;7.65;3.98;;;;;;;31.37;18.44;100327.50;1816478;79;21183;-79
2023/05/20 12:17:58;;;;;;;11.53;3.70;;;;;;;31.42;18.74;100319.50;1819750;77;21234;-82
2023/05/20 12:21:03;;;;;;;6.75;2.95;;;;;;;31.32;18.21;100321.96;1822296;79;21151;-77
2023/05/20 12:24:09;;;;;;;9.95;4.62;;;;;;;31.29;18.69;100319.20;1821713;79;21147;-82
2023/05/20 12:27:16;;;;;;;8.78;3.60;;;;;;;31.28;17.91;100311.02;1820863;79;21195;-78
2023/05/20 12:30:25;;;;;;;9.48;3.77;;;;;;;31.10;18.56;100310.52;1820668;79;21207;-78
2023/05/20 12:33:32;;;;;;;7.08;3.17;;;;;;;31.18;18.87;100314.87;1800841;79;21215;-83
2023/05/20 12:36:37;;;;;;;8.83;3.30;;;;;;;31.13;18.21;100305.09;1786631;79;21198;-83
2023/05/20 12:39:43;;;;;;;13.78;3.40;;;;;;;31.22;18.57;100309.44;1785069;80;21230;-78
2023/05/20 12:42:50;;;;;;;8.28;3.75;;;;;;;31.35;18.58;100295.91;1783263;80;21222;-78
2023/05/20 12:45:56;;;;;;;9.80;3.80;;;;;;;31.54;18.79;100308.50;1778154;80;21759;-84
2023/05/20 12:49:01;;;;;;;12.82;3.65;;;;;;;31.62;17.80;100297.87;1776379;80;21226;-79
2023/05/20 12:52:07;;;;;;;14.30;3.67;;;;;;;31.63;18.37;100299.53;1754402;80;21167;-79
2023/05/20 12:55:15;;;;;;;15.35;4.30;;;;;;;31.53;18.05;100306.83;1776502;80;21203;-80
2023/05/20 12:58:21;;;;;;;9.45;4.03;;;;;;;31.25;18.51;100309.65;1777761;80;21787;-78
2023/05/20 13:01:28;;;;;;;14.85;3.80;;;;;;;31.01;18.29;100303.38;1777752;80;21219;-77
2023/05/20 13:04:35;;;;;;;9.55;4.35;;;;;;;30.99;18.44;100314.97;1777018;80;21650;-78
2023/05/20 13:07:40;;;;;;;10.13;3.33;;;;;;;31.07;18.80;100295.63;1776583;80;21231;-82
2023/05/20 13:10:45;;;;;;;8.10;3.52;;;;;;;31.03;19.35;100295.41;1777850;80;21716;-83
2023/05/20 13:13:52;;;;;;;6.58;3.70;;;;;;;30.87;18.91;100294.05;1777929;80;21235;-83
2023/05/20 13:16:58;;;;;;;6.62;3.50;;;;;;;30.86;19.33;100292.36;1776705;80;21768;-78
2023/05/20 13:20:04;;;;;;;6.03;3.20;;;;;;;30.95;18.89;100283.42;1777203;80;21232;-83
2023/05/20 13:23:10;;;;;;;5.08;3.27;;;;;;;30.97;19.91;100282.55;1778387;80;21144;-83
2023/05/20 13:26:14;;;;;;;9.28;3.55;;;;;;;31.10;18.64;100276.62;1778530;80;21186;-84
2023/05/20 13:32:33;;;;;;;7.62;3.30;;;;;;;31.01;18.48;100272.31;1721580;83;21174;-84
2023/05/20 13:35:39;;;;;;;8.08;3.77;;;;;;;30.99;18.92;100277.42;1722421;83;21182;-77
2023/05/20 13:38:38;;;;;;;13.85;3.55;;;;;;;30.98;19.23;100273.76;1711631;83;21218;-79
2023/05/20 13:41:42;;;;;;;8.73;3.90;;;;;;;31.05;19.25;100262.03;1720739;83;21297;-84
2023/05/20 13:44:50;;;;;;;9.20;3.17;;;;;;;31.04;19.40;100269.67;1719473;83;21206;-78
2023/05/20 13:47:56;;;;;;;14.55;3.92;;;;;;;30.96;19.30;100259.13;1719735;83;21210;-83
2023/05/20 13:51:03;;;;;;;10.55;3.05;;;;;;;30.92;19.15;100255.83;1720982;83;21187;-82
2023/05/20 13:54:09;;;;;;;6.28;3.20;;;;;;;30.79;19.02;100256.08;1720774;83;21230;-83
2023/05/20 13:57:15;;;;;;;10.40;3.60;;;;;;;30.79;18.25;100265.38;1721033;83;21795;-78
2023/05/20 14:00:21;;;;;;;8.08;2.77;;;;;;;30.78;18.46;100250.17;1720750;83;21764;-83
2023/05/20 14:03:27;;;;;;;7.55;3.20;;;;;;;30.86;19.03;100257.06;1720604;83;21811;-78
2023/05/20 14:06:32;;;;;;;7.50;3.60;;;;;;;30.92;18.50;100261.48;1721012;83;21171;-78
2023/05/20 14:09:37;;;;;;;10.03;3.58;;;;;;;30.98;19.23;100256.81;1699142;83;21831;-78
2023/05/20 14:12:46;;;;;;;7.50;3.25;;;;;;;31.09;18.72;100258.02;1720839;83;21214;-79
2023/05/20 14:15:53;;;;;;;5.37;3.55;;;;;;;31.11;18.95;100255.15;1721199;83;21210;-83
2023/05/20 14:18:55;;;;;;;5.92;3.20;;;;;;;30.95;18.99;100256.59;1721008;83;21230;-83
2023/05/20 14:22:02;;;;;;;8.30;4.33;;;;;;;30.80;19.47;100258.58;1721483;83;21183;-80
2023/05/20 14:25:07;;;;;;;21.40;4.28;;;;;;;30.69;19.11;100254.27;1720147;83;21249;-78